Time;durP1;ratioP1;P1;durP2;ratioP2;P2;SDS_P1;SDS_P2;PMS_P1;PMS_P2;Temp;Humidity;BMP_temperature;BMP_pressure;BME280_temperature;BME280_humidity;BME280_pressure;Samples;Min_cycle;Max_cycle;Signal;HPM_P1;HPM_P2
2022/12/23 00:01:23;;;;;;;300.58;38.78;;;7.20;99.90;;;;;;5046411;28;20156;-67
2022/12/23 00:03:49;;;;;;;499.25;42.22;;;7.20;99.90;;;;;;5061257;28;20049;-67
2022/12/23 00:06:16;;;;;;;480.75;42.13;;;7.20;99.90;;;;;;5048383;28;20068;-67
2022/12/23 00:08:42;;;;;;;180.43;32.58;;;7.20;99.90;;;;;;5060750;28;20032;-67
2022/12/23 00:11:16;;;;;;;333.35;39.83;;;7.20;99.90;;;;;;5047906;28;20457;-67
2022/12/23 00:16:27;;;;;;;283.23;33.35;;;7.20;99.90;;;;;;5063056;28;20045;-67
2022/12/23 00:18:53;;;;;;;367.45;38.40;;;7.20;99.90;;;;;;5063873;28;20086;-67
2022/12/23 00:21:19;;;;;;;207.52;33.35;;;7.20;99.90;;;;;;5051932;28;20461;-67
2022/12/23 00:23:47;;;;;;;393.08;35.47;;;7.20;99.90;;;;;;5064277;28;20040;-67
2022/12/23 00:26:15;;;;;;;156.20;32.53;;;7.20;99.90;;;;;;5065922;28;20045;-67
2022/12/23 00:28:41;;;;;;;237.88;34.60;;;7.20;99.90;;;;;;5066174;28;20033;-67
2022/12/23 00:31:07;;;;;;;209.15;34.25;;;7.20;99.90;;;;;;5065354;28;20037;-67
2022/12/23 00:33:36;;;;;;;355.67;38.22;;;7.20;99.90;;;;;;5051085;28;20040;-67
2022/12/23 00:36:09;;;;;;;273.88;36.50;;;7.20;99.90;;;;;;5067260;28;20040;-67
2022/12/23 00:44:03;;;;;;;150.73;32.70;;;7.20;99.90;;;;;;5062047;28;20523;-67
2022/12/23 00:46:29;;;;;;;215.93;34.83;;;7.20;99.90;;;;;;5066361;28;20047;-67
2022/12/23 00:51:39;;;;;;;171.45;30.02;;;7.20;99.90;;;;;;5065000;28;20400;-67
2022/12/23 00:54:05;;;;;;;202.57;32.67;;;7.20;99.90;;;;;;5063907;28;20048;-67
2022/12/23 00:56:31;;;;;;;182.63;31.70;;;7.20;99.90;;;;;;5066495;28;20040;-67
2022/12/23 00:58:58;;;;;;;239.90;34.35;;;7.20;99.90;;;;;;5049924;28;20032;-67
2022/12/23 01:06:58;;;;;;;106.70;29.75;;;7.20;99.90;;;;;;5080186;28;20040;-67
2022/12/23 01:09:24;;;;;;;168.45;30.67;;;7.20;99.90;;;;;;5066734;28;20048;-68
2022/12/23 01:11:50;;;;;;;192.52;32.58;;;7.20;99.90;;;;;;5061117;28;20118;-67
2022/12/23 01:14:16;;;;;;;294.73;34.90;;;7.20;99.90;;;;;;5066586;28;20389;-67
2022/12/23 01:16:43;;;;;;;205.73;32.83;;;7.20;99.90;;;;;;5062296;28;20513;-67
2022/12/23 01:19:09;;;;;;;128.55;31.13;;;7.20;99.90;;;;;;5065743;28;20046;-68
2022/12/23 01:21:34;;;;;;;194.30;30.77;;;7.20;99.90;;;;;;5049990;28;20358;-67
2022/12/23 01:24:00;;;;;;;208.23;32.33;;;7.20;99.90;;;;;;5048788;28;20037;-68
2022/12/23 01:26:26;;;;;;;209.35;31.23;;;7.20;99.90;;;;;;5045301;28;20049;-67
2022/12/23 01:28:56;;;;;;;409.67;38.95;;;7.20;99.90;;;;;;5050339;28;20036;-68
2022/12/23 01:31:23;;;;;;;142.07;29.90;;;7.20;99.90;;;;;;5079561;28;20047;-67
2022/12/23 01:33:50;;;;;;;128.20;29.23;;;7.20;99.90;;;;;;5080437;28;20121;-68
2022/12/23 01:36:16;;;;;;;142.07;31.20;;;7.20;99.90;;;;;;5063490;28;20406;-67
2022/12/23 01:38:42;;;;;;;259.10;31.35;;;7.20;99.90;;;;;;5066833;28;20575;-67
2022/12/23 01:42:42;;;;;;;299.27;35.55;;;7.20;99.90;;;;;;5048872;28;20049;-68
2022/12/23 01:43:57;;;;;;;333.58;34.15;;;7.30;99.90;;;;;;5063018;28;20114;-67
2022/12/23 01:46:22;;;;;;;167.85;33.80;;;7.20;99.90;;;;;;5049180;28;20411;-67
2022/12/23 01:48:51;;;;;;;285.92;35.95;;;7.30;99.90;;;;;;5046649;28;20408;-68
2022/12/23 01:51:28;;;;;;;221.68;38.10;;;7.20;99.90;;;;;;5066056;28;20121;-68
2022/12/23 01:53:59;;;;;;;201.38;37.17;;;7.30;99.90;;;;;;5061746;28;20051;-67
2022/12/23 01:56:35;;;;;;;327.33;40.65;;;7.20;99.90;;;;;;5049550;28;20085;-67
2022/12/23 02:04:43;;;;;;;;;;;7.30;99.90;;;;;;5065937;28;20048;-67
2022/12/23 02:09:54;;;;;;;377.95;41.38;;;7.20;99.90;;;;;;5062538;28;20048;-67
2022/12/23 02:12:43;;;;;;;266.70;39.53;;;7.20;99.90;;;;;;5049094;28;20459;-67
2022/12/23 02:18:25;;;;;;;330.77;41.00;;;7.20;99.90;;;;;;5062413;28;20044;-67
2022/12/23 02:21:12;;;;;;;251.77;40.00;;;7.30;99.90;;;;;;5064034;28;20044;-67
2022/12/23 02:23:56;;;;;;;277.73;39.80;;;7.30;99.90;;;;;;5065098;28;20047;-68
2022/12/23 02:26:33;;;;;;;282.80;38.72;;;7.30;99.90;;;;;;5046403;28;20044;-68
2022/12/23 02:29:11;;;;;;;264.02;38.25;;;7.20;99.90;;;;;;5080473;28;20044;-67
2022/12/23 02:31:56;;;;;;;287.40;39.13;;;7.20;99.90;;;;;;5079636;28;20119;-68
2022/12/23 02:34:52;;;;;;;213.45;38.13;;;7.20;99.90;;;;;;5048397;28;20056;-68
2022/12/23 02:37:18;;;;;;;219.07;37.00;;;7.20;99.90;;;;;;5038630;28;20064;-68
2022/12/23 02:39:55;;;;;;;214.43;38.25;;;7.20;99.90;;;;;;5063504;28;20045;-67
2022/12/23 02:42:34;;;;;;;261.30;38.67;;;7.20;99.90;;;;;;5063521;28;20064;-67
2022/12/23 02:45:19;;;;;;;282.52;38.30;;;7.20;99.90;;;;;;5048080;28;20456;-67
2022/12/23 02:48:31;;;;;;;319.08;38.33;;;7.20;99.90;;;;;;5080515;28;20355;-67
2022/12/23 02:50:59;;;;;;;255.68;35.90;;;7.20;99.90;;;;;;5061758;28;20049;-67
2022/12/23 02:53:38;;;;;;;255.15;33.25;;;7.20;99.90;;;;;;5061638;28;20044;-68
2022/12/23 02:56:07;;;;;;;258.05;36.65;;;7.20;99.90;;;;;;5079674;28;20441;-68
2022/12/23 02:58:56;;;;;;;302.90;37.28;;;7.20;99.90;;;;;;5059784;28;20044;-68
2022/12/23 03:01:24;;;;;;;260.52;34.88;;;7.20;99.90;;;;;;5063292;28;20504;-68
2022/12/23 03:03:50;;;;;;;318.25;36.13;;;7.20;99.90;;;;;;5046908;28;20503;-68
2022/12/23 03:06:25;;;;;;;297.55;37.97;;;7.20;99.90;;;;;;5080382;28;20090;-68
2022/12/23 03:08:55;;;;;;;268.05;37.67;;;7.20;99.90;;;;;;5064009;28;20378;-68
2022/12/23 03:11:24;;;;;;;287.48;39.20;;;7.30;99.90;;;;;;5063330;28;20056;-68
2022/12/23 03:14:08;;;;;;;336.48;38.65;;;7.20;99.90;;;;;;5046121;28;20041;-68
2022/12/23 03:16:49;;;;;;;285.27;38.03;;;7.20;99.90;;;;;;5061117;28;20039;-68
2022/12/23 03:19:19;;;;;;;231.35;35.70;;;7.20;99.90;;;;;;5058470;28;20528;-67
2022/12/23 03:22:08;;;;;;;276.25;39.95;;;7.30;99.90;;;;;;5062732;28;20044;-68
2022/12/23 03:24:44;;;;;;;351.75;39.05;;;7.30;99.90;;;;;;5052004;28;20040;-68
2022/12/23 03:27:24;;;;;;;201.77;31.83;;;7.30;99.90;;;;;;5064505;28;20052;-67
2022/12/23 03:30:13;;;;;;;288.10;36.35;;;7.30;99.90;;;;;;5046258;28;20163;-67
2022/12/23 03:32:48;;;;;;;249.82;35.28;;;7.20;99.90;;;;;;5065164;28;20047;-68
2022/12/23 03:35:18;;;;;;;217.55;33.45;;;7.20;99.90;;;;;;5058963;28;20556;-68
2022/12/23 03:37:49;;;;;;;296.80;34.72;;;7.20;99.90;;;;;;5046413;28;20037;-67
2022/12/23 03:40:41;;;;;;;253.65;35.58;;;7.20;99.90;;;;;;5048151;28;20052;-67
2022/12/23 03:43:12;;;;;;;204.35;32.22;;;7.10;99.90;;;;;;5057218;28;20055;-67
2022/12/23 03:45:45;;;;;;;257.55;31.67;;;7.10;99.90;;;;;;5046923;28;20047;-68
2022/12/23 03:48:22;;;;;;;285.48;35.30;;;7.10;99.90;;;;;;5065185;28;20132;-68
2022/12/23 03:50:52;;;;;;;226.50;33.40;;;7.10;99.90;;;;;;5064934;28;20067;-68
2022/12/23 03:53:24;;;;;;;304.67;33.45;;;7.10;99.90;;;;;;5048954;28;20204;-68
2022/12/23 03:55:58;;;;;;;210.73;32.70;;;7.10;99.90;;;;;;5064768;28;20059;-68
2022/12/23 03:58:36;;;;;;;190.90;29.45;;;7.10;99.90;;;;;;5048061;28;20037;-67
2022/12/23 04:01:22;;;;;;;220.18;31.85;;;7.10;99.90;;;;;;5067363;28;20040;-68
2022/12/23 04:03:51;;;;;;;245.85;34.40;;;7.10;99.90;;;;;;5065933;28;20435;-68
2022/12/23 04:06:19;;;;;;;384.67;35.22;;;7.10;99.90;;;;;;5063987;28;20037;-68
2022/12/23 04:08:46;;;;;;;270.90;32.28;;;7.10;99.90;;;;;;5064893;28;20040;-67
2022/12/23 04:11:12;;;;;;;275.27;33.58;;;7.00;99.90;;;;;;5066675;28;20365;-67
2022/12/23 04:13:38;;;;;;;260.30;32.85;;;7.00;99.90;;;;;;5065030;28;20051;-68
2022/12/23 04:16:04;;;;;;;337.15;34.67;;;7.00;99.90;;;;;;5067547;28;20377;-67
2022/12/23 04:18:30;;;;;;;261.00;34.17;;;7.00;99.90;;;;;;5084549;28;20147;-68
2022/12/23 04:20:56;;;;;;;269.05;33.13;;;7.00;99.90;;;;;;5050406;28;20127;-67
2022/12/23 04:23:21;;;;;;;270.42;35.83;;;7.00;99.90;;;;;;5065474;28;20040;-67
2022/12/23 04:25:47;;;;;;;314.50;36.80;;;7.00;99.90;;;;;;5051915;28;20041;-68
2022/12/23 04:28:12;;;;;;;283.95;34.17;;;7.00;99.90;;;;;;5064517;28;20433;-68
2022/12/23 04:30:38;;;;;;;241.60;33.15;;;7.00;99.90;;;;;;5049882;28;20040;-67
2022/12/23 04:33:04;;;;;;;244.50;33.92;;;7.00;99.90;;;;;;5050180;28;20055;-68
2022/12/23 04:35:30;;;;;;;224.15;33.42;;;7.00;99.90;;;;;;5065354;28;20044;-68
2022/12/23 04:37:55;;;;;;;300.40;34.88;;;7.00;99.90;;;;;;5064066;28;20523;-67
2022/12/23 04:40:21;;;;;;;212.50;33.08;;;7.00;99.90;;;;;;5048922;28;20068;-68
2022/12/23 04:42:46;;;;;;;194.88;31.02;;;7.00;99.90;;;;;;5051011;28;20135;-68
2022/12/23 04:45:12;;;;;;;377.08;33.63;;;7.00;99.90;;;;;;5050309;28;20041;-68
2022/12/23 04:47:39;;;;;;;385.30;33.33;;;7.00;99.90;;;;;;5051147;28;20037;-68
2022/12/23 04:50:05;;;;;;;348.75;32.72;;;6.90;99.90;;;;;;5065268;28;20130;-68
2022/12/23 04:52:31;;;;;;;330.98;31.33;;;7.00;99.90;;;;;;5065118;28;20040;-68
2022/12/23 04:54:57;;;;;;;384.17;35.85;;;6.90;99.90;;;;;;5050730;28;20040;-68
2022/12/23 04:57:22;;;;;;;319.02;33.00;;;6.90;99.90;;;;;;5048542;28;20064;-68
2022/12/23 04:59:48;;;;;;;249.38;30.92;;;6.90;99.90;;;;;;5062646;28;20499;-67
2022/12/23 05:02:13;;;;;;;193.45;29.42;;;6.90;99.90;;;;;;5063952;28;20036;-68
2022/12/23 05:04:39;;;;;;;198.20;29.55;;;6.90;99.90;;;;;;5082158;28;20480;-67
2022/12/23 05:07:05;;;;;;;296.25;29.15;;;6.90;99.90;;;;;;5065981;28;20090;-68
2022/12/23 05:09:30;;;;;;;231.05;29.05;;;6.90;99.90;;;;;;5063077;28;20029;-67
2022/12/23 05:11:56;;;;;;;222.43;29.92;;;6.90;99.90;;;;;;5063433;28;20490;-68
2022/12/23 05:14:21;;;;;;;190.75;28.95;;;6.90;99.90;;;;;;5065288;28;20609;-67
2022/12/23 05:16:47;;;;;;;236.50;29.23;;;6.90;99.90;;;;;;5048786;28;20123;-67
2022/12/23 05:19:13;;;;;;;240.13;28.55;;;6.90;99.90;;;;;;5048540;28;20041;-67
2022/12/23 05:21:38;;;;;;;265.15;33.00;;;6.90;99.90;;;;;;5063213;28;20913;-68
2022/12/23 05:24:04;;;;;;;426.02;35.38;;;6.90;99.90;;;;;;5065649;28;20175;-68
2022/12/23 05:26:30;;;;;;;453.63;37.58;;;6.90;99.90;;;;;;5063493;28;20490;-68
2022/12/23 05:28:55;;;;;;;425.77;33.85;;;6.90;99.90;;;;;;5066695;28;20040;-67
2022/12/23 05:31:21;;;;;;;325.58;34.45;;;6.90;99.90;;;;;;5062913;28;20135;-68
2022/12/23 05:33:46;;;;;;;345.75;33.30;;;6.90;99.90;;;;;;5046651;28;20044;-68
2022/12/23 05:36:12;;;;;;;399.65;34.75;;;6.90;99.90;;;;;;5062689;28;20128;-68
2022/12/23 05:38:38;;;;;;;364.63;33.28;;;6.90;99.90;;;;;;5063975;28;20143;-67
2022/12/23 05:41:04;;;;;;;460.38;35.30;;;6.90;99.90;;;;;;5064496;28;20080;-67
2022/12/23 05:43:30;;;;;;;402.10;33.47;;;6.90;99.90;;;;;;5063842;28;20044;-68
2022/12/23 05:45:55;;;;;;;263.27;30.58;;;6.80;99.90;;;;;;5064054;28;20043;-68
2022/12/23 05:48:21;;;;;;;290.98;31.90;;;6.80;99.90;;;;;;5063248;28;20350;-68
2022/12/23 05:50:51;;;;;;;209.00;29.52;;;6.90;99.90;;;;;;5065162;28;20507;-68
2022/12/23 05:53:18;;;;;;;290.52;34.63;;;6.80;99.90;;;;;;5063996;28;20071;-68
2022/12/23 05:55:44;;;;;;;358.05;34.70;;;6.80;99.90;;;;;;5049096;28;20162;-68
2022/12/23 05:58:09;;;;;;;260.52;32.28;;;6.90;99.90;;;;;;5063878;28;20131;-68
2022/12/23 06:00:35;;;;;;;341.70;31.98;;;6.90;99.90;;;;;;5048495;28;20088;-67
2022/12/23 06:03:01;;;;;;;352.70;33.72;;;6.90;99.90;;;;;;5049001;28;20637;-68
2022/12/23 06:05:26;;;;;;;289.05;31.63;;;6.90;99.90;;;;;;5047351;28;20548;-68
2022/12/23 06:07:52;;;;;;;335.67;33.03;;;6.90;99.90;;;;;;5062975;28;20040;-68
2022/12/23 06:10:17;;;;;;;415.63;31.98;;;6.80;99.90;;;;;;5066677;28;20505;-68
2022/12/23 06:12:43;;;;;;;422.50;30.52;;;6.80;99.90;;;;;;5048536;28;20174;-68
2022/12/23 06:15:10;;;;;;;551.92;34.15;;;6.80;99.90;;;;;;5065775;28;20074;-68
2022/12/23 06:17:35;;;;;;;666.28;40.78;;;6.70;99.90;;;;;;5061426;28;20468;-68
2022/12/23 06:20:01;;;;;;;688.88;36.13;;;6.60;99.90;;;;;;5061886;28;20075;-67
2022/12/23 06:22:27;;;;;;;479.05;29.83;;;6.60;99.90;;;;;;5047165;28;20408;-68
2022/12/23 06:24:52;;;;;;;717.83;44.88;;;6.50;99.90;;;;;;5059774;28;20103;-68
2022/12/23 06:27:18;;;;;;;457.13;29.92;;;6.50;99.90;;;;;;5046355;28;20155;-67
2022/12/23 06:29:44;;;;;;;752.78;45.67;;;6.40;99.90;;;;;;5060899;28;20041;-68
2022/12/23 06:32:09;;;;;;;688.20;42.47;;;6.40;99.90;;;;;;5048471;28;20055;-68
2022/12/23 06:34:35;;;;;;;650.25;37.33;;;6.40;99.90;;;;;;5061814;28;20134;-67
2022/12/23 06:37:00;;;;;;;506.88;28.45;;;6.40;99.90;;;;;;5062416;28;20561;-68
2022/12/23 06:39:26;;;;;;;507.38;30.67;;;6.40;99.90;;;;;;5046380;28;20159;-67
2022/12/23 06:41:52;;;;;;;453.90;28.45;;;6.30;99.90;;;;;;5062423;28;20048;-67
2022/12/23 06:44:17;;;;;;;616.30;37.33;;;6.30;99.90;;;;;;5047117;28;20045;-68
2022/12/23 06:46:43;;;;;;;528.83;31.00;;;6.30;99.90;;;;;;5062182;28;20428;-68
2022/12/23 06:49:09;;;;;;;539.10;34.97;;;6.30;99.90;;;;;;5048203;28;20047;-68
2022/12/23 06:51:34;;;;;;;574.83;38.63;;;6.30;99.90;;;;;;5046029;28;20024;-68
2022/12/23 06:54:00;;;;;;;412.50;28.05;;;6.30;99.90;;;;;;5041447;28;20052;-68
2022/12/23 06:56:26;;;;;;;394.67;26.45;;;6.30;99.90;;;;;;5064880;28;20134;-68
2022/12/23 06:58:51;;;;;;;530.28;34.30;;;6.30;99.90;;;;;;5046444;28;20047;-68
2022/12/23 07:01:18;;;;;;;388.15;26.42;;;6.30;99.90;;;;;;5061708;28;20044;-68
2022/12/23 07:03:44;;;;;;;410.88;31.83;;;6.40;99.90;;;;;;5064112;28;20432;-68
2022/12/23 07:06:10;;;;;;;383.33;29.83;;;6.40;99.90;;;;;;5064170;28;20044;-68
2022/12/23 07:08:35;;;;;;;409.95;30.27;;;6.40;99.90;;;;;;5063578;28;20809;-67
2022/12/23 07:11:02;;;;;;;333.02;29.23;;;6.40;99.90;;;;;;5044970;28;20068;-68
2022/12/23 07:13:29;;;;;;;502.77;36.40;;;6.50;99.90;;;;;;5064360;28;20048;-68
2022/12/23 07:15:55;;;;;;;495.98;34.95;;;6.50;99.90;;;;;;5063127;28;20435;-68
2022/12/23 07:18:22;;;;;;;447.20;32.53;;;6.50;99.90;;;;;;5063379;28;20105;-68
2022/12/23 07:20:48;;;;;;;413.50;33.40;;;6.50;99.90;;;;;;5063304;28;20044;-68
2022/12/23 07:23:13;;;;;;;300.15;28.25;;;6.60;99.90;;;;;;5066698;28;20041;-68
2022/12/23 07:25:39;;;;;;;267.60;26.73;;;6.60;99.90;;;;;;5065743;28;20047;-67
2022/12/23 07:28:05;;;;;;;162.95;23.42;;;6.60;99.90;;;;;;5067562;28;20078;-67
2022/12/23 07:30:30;;;;;;;291.60;28.50;;;6.60;99.90;;;;;;5051243;28;20029;-68
2022/12/23 07:32:56;;;;;;;273.30;27.42;;;6.60;99.90;;;;;;5066314;28;20045;-67
2022/12/23 07:35:21;;;;;;;270.75;28.02;;;6.60;99.90;;;;;;5066579;28;20047;-68
2022/12/23 07:37:55;;;;;;;223.55;27.95;;;6.60;99.90;;;;;;5052524;28;20327;-67
2022/12/23 07:40:24;;;;;;;273.13;27.38;;;6.60;99.90;;;;;;5066986;28;20431;-67
2022/12/23 07:42:53;;;;;;;184.90;25.77;;;6.60;99.90;;;;;;5064724;28;20127;-68
2022/12/23 07:45:19;;;;;;;297.05;28.30;;;6.60;99.90;;;;;;5064329;28;20404;-67
2022/12/23 07:47:45;;;;;;;189.77;26.63;;;6.60;99.90;;;;;;5068101;28;20037;-68
2022/12/23 07:50:11;;;;;;;237.98;28.60;;;6.70;99.90;;;;;;5049319;28;20553;-67
2022/12/23 07:52:36;;;;;;;237.85;26.55;;;6.60;99.90;;;;;;5066579;28;20055;-68
2022/12/23 07:55:02;;;;;;;256.65;27.58;;;6.60;99.90;;;;;;5052097;28;20044;-68
2022/12/23 07:57:28;;;;;;;203.73;26.70;;;6.70;99.90;;;;;;5051138;28;20052;-68
2022/12/23 07:59:54;;;;;;;221.70;25.83;;;6.60;99.90;;;;;;5067817;28;20036;-68
2022/12/23 08:02:23;;;;;;;214.95;25.20;;;6.60;99.90;;;;;;5065458;28;20044;-68
2022/12/23 08:04:49;;;;;;;151.48;24.60;;;6.60;99.90;;;;;;5065149;28;20462;-68
2022/12/23 08:07:14;;;;;;;176.13;24.50;;;6.60;99.90;;;;;;5063834;28;20094;-67
2022/12/23 08:09:40;;;;;;;205.25;23.58;;;6.70;99.90;;;;;;5052002;28;20040;-68
2022/12/23 08:12:06;;;;;;;181.07;23.20;;;6.70;99.90;;;;;;5068019;28;20043;-67
2022/12/23 08:14:31;;;;;;;148.10;23.95;;;6.70;99.90;;;;;;5050474;28;20040;-67
2022/12/23 08:16:57;;;;;;;174.18;22.48;;;6.70;99.90;;;;;;5078728;28;20091;-68
2022/12/23 08:19:22;;;;;;;138.85;22.73;;;6.70;99.90;;;;;;5066796;28;20090;-68
2022/12/23 08:21:48;;;;;;;143.77;22.13;;;6.70;99.90;;;;;;5051714;28;20036;-68
2022/12/23 08:24:14;;;;;;;210.43;24.45;;;6.70;99.90;;;;;;5064367;28;20049;-67
2022/12/23 08:26:39;;;;;;;270.55;26.95;;;6.70;99.90;;;;;;5065424;28;20040;-68
2022/12/23 08:29:05;;;;;;;201.45;24.92;;;6.80;99.90;;;;;;5051323;28;20047;-68
2022/12/23 08:31:30;;;;;;;326.83;31.15;;;6.80;99.90;;;;;;5048178;28;20487;-67
2022/12/23 08:33:57;;;;;;;370.33;29.20;;;6.80;99.90;;;;;;5067879;28;20046;-68
2022/12/23 08:36:26;;;;;;;430.95;33.83;;;6.80;99.90;;;;;;5065513;28;20041;-68
2022/12/23 08:38:54;;;;;;;176.55;24.73;;;6.80;99.90;;;;;;5067055;28;20040;-68
2022/12/23 08:41:22;;;;;;;241.07;27.92;;;6.80;99.90;;;;;;5063260;28;20052;-67
2022/12/23 08:43:48;;;;;;;357.55;45.88;;;6.80;99.90;;;;;;5067435;28;20037;-68
2022/12/23 08:46:13;;;;;;;381.48;32.35;;;6.80;99.90;;;;;;5047501;28;20043;-68
2022/12/23 08:48:39;;;;;;;321.80;27.10;;;6.80;99.90;;;;;;5050796;28;20037;-68
2022/12/23 08:51:13;;;;;;;433.92;30.70;;;6.80;99.90;;;;;;5066379;28;20131;-68
2022/12/23 08:53:39;;;;;;;333.98;29.13;;;6.80;99.90;;;;;;5067614;28;20040;-68
2022/12/23 08:56:07;;;;;;;343.85;27.13;;;6.80;99.90;;;;;;5065075;28;20051;-68
2022/12/23 08:58:38;;;;;;;384.52;27.88;;;6.80;99.90;;;;;;5067116;28;20052;-68
2022/12/23 09:01:05;;;;;;;456.30;31.95;;;6.80;99.90;;;;;;5048271;28;20127;-68
2022/12/23 09:03:31;;;;;;;326.25;27.40;;;6.90;99.90;;;;;;5064089;28;20041;-68
2022/12/23 09:05:57;;;;;;;332.05;27.92;;;6.90;99.90;;;;;;5064014;28;20403;-68
2022/12/23 09:08:22;;;;;;;428.20;32.05;;;6.90;99.90;;;;;;5063865;28;20066;-68
2022/12/23 09:10:48;;;;;;;446.00;30.98;;;6.90;99.90;;;;;;5050012;28;20048;-68
2022/12/23 09:13:13;;;;;;;328.73;28.02;;;7.00;99.90;;;;;;5063848;28;20134;-68
2022/12/23 09:15:43;;;;;;;416.40;30.92;;;7.00;99.90;;;;;;5064606;28;20055;-68
2022/12/23 09:18:10;;;;;;;321.85;28.42;;;7.00;99.90;;;;;;5061689;28;20052;-68
2022/12/23 09:20:37;;;;;;;410.55;31.75;;;7.10;99.90;;;;;;5065492;28;20118;-68
2022/12/23 09:23:03;;;;;;;358.73;30.45;;;7.10;99.90;;;;;;5078620;28;20040;-68
2022/12/23 09:25:30;;;;;;;260.05;25.10;;;7.10;99.90;;;;;;5066514;28;20040;-68
2022/12/23 09:27:55;;;;;;;278.98;25.00;;;7.20;99.90;;;;;;5049440;28;20032;-69
2022/12/23 09:30:21;;;;;;;253.75;25.02;;;7.20;99.90;;;;;;5049461;28;20043;-68
2022/12/23 09:32:47;;;;;;;310.88;27.10;;;7.20;99.90;;;;;;5065486;28;20067;-68
2022/12/23 09:35:12;;;;;;;370.88;28.05;;;7.20;99.90;;;;;;5065674;28;20036;-68
2022/12/23 09:37:38;;;;;;;222.70;24.88;;;7.20;99.90;;;;;;5050344;28;20923;-68
2022/12/23 09:40:04;;;;;;;387.73;27.95;;;7.20;99.90;;;;;;5060467;28;20045;-68
2022/12/23 09:43:14;;;;;;;336.10;27.58;;;7.20;99.90;;;;;;5059865;28;20389;-68
2022/12/23 09:45:55;;;;;;;254.50;24.00;;;7.20;99.90;;;;;;4987763;28;20044;-68
2022/12/23 09:48:25;;;;;;;281.55;25.83;;;7.20;99.90;;;;;;5066764;28;20048;-68
2022/12/23 09:50:51;;;;;;;362.13;28.83;;;7.30;99.90;;;;;;5062085;28;20044;-68
2022/12/23 09:53:33;;;;;;;253.25;22.40;;;7.30;99.90;;;;;;5063855;28;20059;-68
2022/12/23 09:55:58;;;;;;;262.35;23.70;;;7.30;99.90;;;;;;5081675;28;20042;-68
2022/12/23 09:58:37;;;;;;;172.05;20.55;;;7.40;99.90;;;;;;5066020;28;20036;-68
2022/12/23 10:01:31;;;;;;;240.60;22.77;;;7.40;99.90;;;;;;5080806;28;20044;-68
2022/12/23 10:04:22;;;;;;;292.70;25.40;;;7.40;99.90;;;;;;5049279;28;20437;-68
2022/12/23 10:07:18;;;;;;;262.25;22.80;;;7.40;99.90;;;;;;5049920;28;20145;-68
2022/12/23 10:09:46;;;;;;;290.15;23.80;;;7.40;99.90;;;;;;5078914;28;21273;-68
2022/12/23 10:12:33;;;;;;;215.13;21.98;;;7.40;99.90;;;;;;5045767;28;20412;-68
2022/12/23 10:15:02;;;;;;;223.45;22.05;;;7.40;99.90;;;;;;5047238;28;20045;-69
2022/12/23 10:17:33;;;;;;;307.67;25.75;;;7.40;99.90;;;;;;5063721;28;20291;-68
2022/12/23 10:20:03;;;;;;;213.93;22.77;;;7.40;99.90;;;;;;5064605;28;20049;-68
2022/12/23 10:22:39;;;;;;;172.35;21.92;;;7.40;99.90;;;;;;5048277;28;20032;-68
2022/12/23 10:25:15;;;;;;;167.48;23.17;;;7.40;99.90;;;;;;5077093;28;20151;-68
2022/12/23 10:27:43;;;;;;;143.63;22.00;;;7.40;99.90;;;;;;5065521;28;20442;-68
2022/12/23 10:30:10;;;;;;;145.25;22.27;;;7.50;99.90;;;;;;5063754;28;20555;-68
2022/12/23 10:32:38;;;;;;;98.18;18.08;;;7.60;99.90;;;;;;5045991;28;20060;-68
2022/12/23 10:35:07;;;;;;;105.70;19.73;;;7.60;99.90;;;;;;5062766;28;20075;-68
2022/12/23 10:38:12;;;;;;;190.95;23.42;;;7.60;99.90;;;;;;5048520;28;20542;-68
2022/12/23 10:40:48;;;;;;;151.75;20.48;;;7.60;99.90;;;;;;4968841;28;20157;-68
2022/12/23 10:43:26;;;;;;;103.13;18.67;;;7.60;99.90;;;;;;4984298;28;20066;-68
2022/12/23 10:46:20;;;;;;;186.07;24.15;;;7.60;99.90;;;;;;4968462;28;20061;-68
2022/12/23 10:49:14;;;;;;;297.43;25.37;;;7.60;99.90;;;;;;4967072;28;20050;-68
2022/12/23 10:51:53;;;;;;;80.47;19.92;;;7.60;99.90;;;;;;4968732;28;20058;-68
2022/12/23 10:54:38;;;;;;;93.28;19.45;;;7.60;99.90;;;;;;4984867;28;20082;-68
2022/12/23 10:57:05;;;;;;;56.30;17.77;;;7.60;99.90;;;;;;4967402;28;20065;-68
2022/12/23 10:59:33;;;;;;;62.30;17.20;;;7.60;99.90;;;;;;4968103;28;20042;-68
2022/12/23 11:02:10;;;;;;;62.53;17.83;;;7.60;99.90;;;;;;4984416;28;20531;-68
2022/12/23 11:04:41;;;;;;;80.38;19.05;;;7.60;99.90;;;;;;4984229;28;20491;-68
2022/12/23 11:07:09;;;;;;;61.90;17.35;;;7.60;99.90;;;;;;4968727;28;20117;-68
2022/12/23 11:09:45;;;;;;;62.83;18.23;;;7.70;99.90;;;;;;4983354;28;20230;-68
2022/12/23 11:12:11;;;;;;;61.92;17.88;;;7.70;99.90;;;;;;4969116;28;20090;-68
2022/12/23 11:14:52;;;;;;;64.97;18.25;;;7.70;99.90;;;;;;4968592;28;20410;-69
2022/12/23 11:17:32;;;;;;;65.68;17.40;;;7.70;99.90;;;;;;5023349;28;20056;-68
2022/12/23 11:20:09;;;;;;;56.95;16.40;;;7.70;99.90;;;;;;5049440;28;20067;-69
2022/12/23 11:22:45;;;;;;;60.90;17.15;;;7.80;99.90;;;;;;5062514;28;20048;-68
2022/12/23 11:25:39;;;;;;;55.25;15.93;;;7.80;99.90;;;;;;5043839;28;20131;-68
2022/12/23 11:28:25;;;;;;;49.75;15.95;;;7.80;99.90;;;;;;5045401;28;20446;-68
2022/12/23 11:30:59;;;;;;;54.17;16.23;;;7.80;99.90;;;;;;5061815;28;20405;-68
2022/12/23 11:33:31;;;;;;;56.40;16.77;;;7.80;99.90;;;;;;5048438;28;20396;-68
2022/12/23 11:36:00;;;;;;;40.75;15.25;;;7.90;99.90;;;;;;5060405;28;20040;-68
2022/12/23 11:38:26;;;;;;;51.08;15.60;;;7.90;99.90;;;;;;5061935;28;20048;-68
2022/12/23 11:40:51;;;;;;;52.78;15.23;;;7.90;99.90;;;;;;5061993;28;20060;-69
2022/12/23 11:43:17;;;;;;;45.35;14.27;;;7.90;99.90;;;;;;5062386;28;20294;-68
2022/12/23 11:45:43;;;;;;;36.15;13.52;;;7.90;99.90;;;;;;5047055;28;20039;-68
2022/12/23 11:48:27;;;;;;;37.35;12.88;;;7.90;99.90;;;;;;5045037;28;20039;-68
2022/12/23 11:51:02;;;;;;;47.95;15.02;;;7.90;99.90;;;;;;5061524;28;20048;-68
2022/12/23 11:53:28;;;;;;;44.28;14.93;;;7.80;99.90;;;;;;5061635;28;20050;-69
2022/12/23 11:56:14;;;;;;;39.80;15.52;;;7.90;99.90;;;;;;5047224;28;20068;-68
2022/12/23 11:58:49;;;;;;;48.65;14.77;;;7.80;99.90;;;;;;5062979;28;20048;-68
2022/12/23 12:01:22;;;;;;;42.53;14.27;;;7.80;99.90;;;;;;5077871;28;20048;-68
2022/12/23 12:03:59;;;;;;;42.78;14.80;;;7.90;99.90;;;;;;5046432;28;20044;-69
2022/12/23 12:06:26;;;;;;;35.90;13.32;;;7.80;99.90;;;;;;5044836;28;20047;-68
2022/12/23 12:08:56;;;;;;;40.83;13.70;;;7.90;99.90;;;;;;5063908;28;20048;-68
2022/12/23 12:11:37;;;;;;;35.70;13.57;;;7.80;99.90;;;;;;5076803;28;20033;-70
2022/12/23 12:14:06;;;;;;;36.13;14.23;;;7.80;99.90;;;;;;5061763;28;20056;-68
2022/12/23 12:16:59;;;;;;;38.03;14.38;;;7.90;99.90;;;;;;5061668;28;20044;-69
2022/12/23 12:19:34;;;;;;;42.42;14.27;;;7.90;99.90;;;;;;5059947;28;20542;-68
2022/12/23 12:22:05;;;;;;;38.67;14.23;;;7.90;99.90;;;;;;5046611;28;20036;-69
2022/12/23 12:24:39;;;;;;;39.58;14.15;;;7.90;99.90;;;;;;5046022;28;20041;-68
2022/12/23 12:27:06;;;;;;;33.95;13.27;;;7.90;99.90;;;;;;5060280;28;20448;-68
2022/12/23 12:29:47;;;;;;;29.58;12.32;;;7.90;99.90;;;;;;5059776;28;20370;-68
2022/12/23 12:32:46;;;;;;;29.90;12.43;;;8.00;99.90;;;;;;5063928;28;20355;-68
2022/12/23 12:35:15;;;;;;;34.08;12.73;;;8.00;99.90;;;;;;5039934;28;20052;-68
2022/12/23 12:37:50;;;;;;;33.17;12.88;;;8.00;99.90;;;;;;5058713;28;20083;-68
2022/12/23 12:40:25;;;;;;;31.27;13.20;;;8.00;99.90;;;;;;5064623;28;20056;-68
2022/12/23 12:43:17;;;;;;;31.63;12.30;;;8.00;99.90;;;;;;5062353;28;20071;-68
2022/12/23 12:45:49;;;;;;;30.33;13.75;;;8.00;99.90;;;;;;5062428;28;20076;-68
2022/12/23 12:48:44;;;;;;;26.75;10.70;;;8.00;99.90;;;;;;5061200;28;20045;-68
2022/12/23 12:51:23;;;;;;;29.58;12.70;;;8.00;99.90;;;;;;5063198;28;20107;-67
2022/12/23 12:54:23;;;;;;;32.50;14.20;;;8.00;99.90;;;;;;5046104;28;20421;-70
2022/12/23 12:56:52;;;;;;;30.20;12.65;;;7.90;99.90;;;;;;5062779;28;20048;-70
2022/12/23 12:59:21;;;;;;;33.10;13.65;;;8.00;99.90;;;;;;5078626;28;20048;-70
2022/12/23 13:02:15;;;;;;;31.00;13.60;;;7.90;99.90;;;;;;5063012;28;20041;-70
2022/12/23 13:05:00;;;;;;;29.45;12.45;;;8.00;99.90;;;;;;5055341;28;20052;-70
2022/12/23 13:08:07;;;;;;;29.25;11.95;;;8.00;99.90;;;;;;5062408;28;20406;-70
2022/12/23 13:10:43;;;;;;;28.98;12.65;;;8.00;99.90;;;;;;4985331;28;20077;-70
2022/12/23 13:13:40;;;;;;;33.78;12.90;;;8.00;99.90;;;;;;5038008;28;20135;-70
2022/12/23 13:16:29;;;;;;;27.45;12.27;;;8.00;99.90;;;;;;5041225;28;20048;-70